Atlanta, Georgia
Traffic Map
Current Weather Conditions
Atlanta, Georgia
Scattered Clouds
Scattered Clouds
79°
Feels Like: 79°
Wind Chill: 79° Ceiling: Unl
Heat Index: 79° Visibility: 10mi
Dew Point: 48° Wind: 0mph
Humidity: 34% Direction: ° ()
Pressure: 30.15in Gusts: 0mph
Raw Report DataKATL 031952Z 00000KT 10SM SCT070 SCT250 26/09 A3015 RMK AO2 SLP203 T02610089
Traffic Incident Summary
Active as of:
Severity:
Category:
InformationThere was an issue retrieving the traffic information for this location. Please try a different location or try again shortly.
Advertisements
Track Severe Weather on mobile